Time;durP1;ratioP1;P1;durP2;ratioP2;P2;SDS_P1;SDS_P2;PMS_P1;PMS_P2;Temp;Humidity;BMP_temperature;BMP_pressure;BME280_temperature;BME280_humidity;BME280_pressure;Samples;Min_cycle;Max_cycle;Signal;HPM_P1;HPM_P2
2021/05/05 00:01:03;;;;;;;2.47;1.08;;;14.60;99.90;;;;;;4973614;28;20049;-67
2021/05/05 00:03:29;;;;;;;1.67;1.08;;;14.40;99.90;;;;;;4981027;28;20408;-67
2021/05/05 00:05:56;;;;;;;1.73;1.17;;;14.40;99.90;;;;;;4979544;28;20024;-67
2021/05/05 00:08:22;;;;;;;4.28;1.20;;;14.20;99.90;;;;;;4978644;28;20031;-67
2021/05/05 00:10:48;;;;;;;1.75;1.10;;;14.30;99.90;;;;;;4979125;28;20042;-67
2021/05/05 00:13:15;;;;;;;4.30;1.35;;;14.10;99.90;;;;;;4978541;28;20589;-67
2021/05/05 00:15:41;;;;;;;1.88;0.95;;;14.10;99.90;;;;;;4980212;28;20031;-67
2021/05/05 00:18:07;;;;;;;3.75;1.00;;;14.20;99.90;;;;;;4978901;28;20030;-68
2021/05/05 00:20:33;;;;;;;1.85;1.00;;;14.10;99.90;;;;;;4980517;28;20033;-67
2021/05/05 00:22:58;;;;;;;2.30;1.42;;;14.10;99.90;;;;;;4978769;28;20047;-68
2021/05/05 00:25:24;;;;;;;1.60;0.98;;;14.20;99.90;;;;;;4981444;28;20026;-67
2021/05/05 00:27:50;;;;;;;2.72;1.05;;;14.20;99.90;;;;;;4978406;28;20101;-67
2021/05/05 00:30:17;;;;;;;3.25;1.30;;;14.30;99.90;;;;;;4982359;28;20030;-67
2021/05/05 00:32:43;;;;;;;1.48;1.20;;;13.80;99.90;;;;;;4977237;28;20081;-67
2021/05/05 00:35:10;;;;;;;1.92;1.20;;;13.90;99.90;;;;;;4984030;28;20426;-67
2021/05/05 00:37:36;;;;;;;2.22;1.05;;;13.90;99.90;;;;;;4976135;28;20027;-67
2021/05/05 00:40:05;;;;;;;1.13;1.00;;;14.00;99.90;;;;;;4984525;28;20093;-67
2021/05/05 00:42:31;;;;;;;3.45;1.58;;;14.00;99.90;;;;;;4977463;28;20026;-67
2021/05/05 00:44:58;;;;;;;4.15;1.10;;;14.20;99.90;;;;;;4987747;28;20037;-67
2021/05/05 00:47:25;;;;;;;2.00;1.20;;;14.10;99.90;;;;;;4977624;28;20022;-67
2021/05/05 00:49:51;;;;;;;2.70;1.25;;;14.10;99.90;;;;;;4977345;28;20034;-67
2021/05/05 00:52:17;;;;;;;1.55;1.13;;;13.80;99.90;;;;;;4973084;28;20384;-67
2021/05/05 00:54:43;;;;;;;1.92;1.10;;;13.90;99.90;;;;;;4982629;28;20042;-67
2021/05/05 00:57:09;;;;;;;2.15;1.40;;;13.90;99.90;;;;;;4977288;28;20551;-67
2021/05/05 00:59:34;;;;;;;1.63;1.02;;;13.90;99.90;;;;;;4979045;28;20066;-67
2021/05/05 01:02:00;;;;;;;1.48;0.95;;;13.80;99.90;;;;;;4971806;28;20102;-67
2021/05/05 01:04:26;;;;;;;1.67;1.05;;;13.90;99.90;;;;;;4971805;28;20179;-67
2021/05/05 01:06:53;;;;;;;1.90;1.27;;;14.00;99.90;;;;;;4971404;28;20019;-67
2021/05/05 01:09:18;;;;;;;1.85;1.00;;;13.90;99.90;;;;;;4981696;28;20538;-67
2021/05/05 01:11:45;;;;;;;1.48;1.08;;;13.80;99.90;;;;;;4972445;28;20051;-67
2021/05/05 01:14:10;;;;;;;2.65;1.08;;;13.70;99.90;;;;;;4984182;28;20198;-67
2021/05/05 01:16:37;;;;;;;1.48;1.00;;;13.90;99.90;;;;;;4983100;28;20079;-67
2021/05/05 01:19:04;;;;;;;1.20;1.10;;;14.00;99.90;;;;;;4977936;28;20027;-67
2021/05/05 01:21:29;;;;;;;3.28;1.10;;;14.00;99.90;;;;;;4984037;28;20027;-67
2021/05/05 01:23:55;;;;;;;1.15;1.05;;;13.80;99.90;;;;;;4977344;28;20081;-67
2021/05/05 01:26:21;;;;;;;1.45;0.90;;;13.70;99.90;;;;;;4972392;28;20027;-67
2021/05/05 01:28:46;;;;;;;1.60;1.15;;;13.70;99.90;;;;;;4980610;28;20117;-67
2021/05/05 01:31:14;;;;;;;2.63;1.00;;;13.50;99.90;;;;;;4973445;28;20023;-67
2021/05/05 01:33:41;;;;;;;1.67;0.95;;;13.80;99.90;;;;;;4980215;28;20030;-67
2021/05/05 01:36:09;;;;;;;1.77;1.00;;;13.80;99.90;;;;;;4972672;28;20034;-67
2021/05/05 01:38:36;;;;;;;3.05;0.95;;;13.70;99.90;;;;;;4980619;28;20050;-67
2021/05/05 01:41:02;;;;;;;1.77;0.90;;;13.90;99.90;;;;;;4975169;28;20034;-67
2021/05/05 01:43:28;;;;;;;1.25;0.80;;;13.70;99.90;;;;;;4989245;28;20507;-67
2021/05/05 01:45:54;;;;;;;1.48;1.00;;;13.70;99.90;;;;;;4975588;28;20027;-67
2021/05/05 01:48:20;;;;;;;1.80;1.10;;;13.50;99.90;;;;;;4976633;28;20496;-67
2021/05/05 01:50:46;;;;;;;2.42;1.00;;;13.60;99.90;;;;;;4971173;28;20562;-67
2021/05/05 01:53:15;;;;;;;2.30;1.30;;;13.60;99.90;;;;;;4975502;28;20031;-67
2021/05/05 01:55:42;;;;;;;3.83;1.27;;;13.50;99.90;;;;;;4977567;28;20030;-67
2021/05/05 01:58:07;;;;;;;2.30;1.02;;;13.60;99.90;;;;;;4976081;28;20491;-67
2021/05/05 02:00:33;;;;;;;2.53;1.00;;;13.60;99.90;;;;;;4978507;28;20031;-67
2021/05/05 02:02:59;;;;;;;1.45;0.90;;;13.80;99.90;;;;;;4975791;28;20031;-67
2021/05/05 02:05:25;;;;;;;1.52;0.90;;;13.50;99.90;;;;;;4979537;28;20369;-67
2021/05/05 02:07:51;;;;;;;2.28;1.27;;;13.50;99.90;;;;;;4975966;28;20032;-67
2021/05/05 02:10:18;;;;;;;2.35;0.77;;;13.60;99.90;;;;;;4979938;28;20117;-67
2021/05/05 02:12:44;;;;;;;2.00;0.68;;;13.60;99.90;;;;;;4974877;28;20034;-67
2021/05/05 02:15:12;;;;;;;2.47;0.65;;;13.40;99.90;;;;;;4977764;28;20209;-68
2021/05/05 02:17:38;;;;;;;2.25;0.90;;;13.50;99.90;;;;;;4974121;28;20033;-67
2021/05/05 02:20:09;;;;;;;1.30;0.80;;;13.50;99.90;;;;;;4973296;28;20117;-67
2021/05/05 02:22:35;;;;;;;1.02;0.73;;;13.40;99.90;;;;;;4972692;28;20038;-67
2021/05/05 02:25:02;;;;;;;0.85;0.50;;;13.40;99.90;;;;;;4980327;28;20379;-67
2021/05/05 02:27:28;;;;;;;0.75;0.60;;;13.40;99.90;;;;;;4972716;28;20487;-67
2021/05/05 02:29:54;;;;;;;1.40;1.13;;;13.60;99.90;;;;;;4982131;28;20080;-68
2021/05/05 02:32:23;;;;;;;1.23;0.60;;;13.60;99.90;;;;;;4971961;28;20018;-67
2021/05/05 02:34:49;;;;;;;1.30;0.70;;;13.50;99.90;;;;;;4977002;28;20084;-67
2021/05/05 02:37:15;;;;;;;2.75;0.80;;;13.60;99.90;;;;;;4973557;28;20068;-69
2021/05/05 02:39:42;;;;;;;0.77;0.70;;;13.40;99.90;;;;;;4980703;28;20438;-68
2021/05/05 02:42:10;;;;;;;1.38;0.60;;;13.50;99.90;;;;;;4975429;28;20383;-67
2021/05/05 02:44:37;;;;;;;1.95;0.90;;;13.40;99.90;;;;;;4980186;28;20076;-69
2021/05/05 02:47:03;;;;;;;1.77;0.75;;;13.50;99.90;;;;;;4974849;28;20114;-67
2021/05/05 02:49:30;;;;;;;3.67;0.88;;;13.60;99.90;;;;;;4978610;28;20168;-67
2021/05/05 02:51:56;;;;;;;2.15;0.80;;;13.60;99.90;;;;;;4973442;28;20019;-67
2021/05/05 02:54:22;;;;;;;3.88;0.82;;;13.60;99.90;;;;;;4981003;28;20128;-67
2021/05/05 02:56:48;;;;;;;1.40;0.85;;;13.60;99.90;;;;;;4970845;28;20027;-68
2021/05/05 02:59:14;;;;;;;1.10;0.80;;;13.60;99.90;;;;;;4981453;28;20035;-67
2021/05/05 03:01:39;;;;;;;0.90;0.70;;;13.60;99.90;;;;;;4970907;28;20158;-68
2021/05/05 03:04:05;;;;;;;1.35;0.75;;;13.60;99.90;;;;;;4990309;28;20082;-70
2021/05/05 03:06:31;;;;;;;2.58;0.60;;;13.70;99.90;;;;;;4982207;28;20030;-69
2021/05/05 03:08:57;;;;;;;1.45;0.60;;;13.60;99.90;;;;;;4979114;28;20026;-69
2021/05/05 03:11:23;;;;;;;6.18;0.90;;;13.60;99.90;;;;;;4964775;28;20051;-69
2021/05/05 03:13:49;;;;;;;3.42;0.60;;;13.70;99.90;;;;;;4967720;28;20043;-70
2021/05/05 03:16:15;;;;;;;1.90;0.85;;;13.60;99.90;;;;;;4972168;28;20031;-70
2021/05/05 03:18:41;;;;;;;1.63;0.60;;;13.60;99.90;;;;;;4975505;28;20186;-69
2021/05/05 03:21:07;;;;;;;1.15;0.80;;;13.60;99.90;;;;;;4973143;28;20101;-69
2021/05/05 03:23:32;;;;;;;1.52;0.55;;;13.70;99.90;;;;;;4965919;28;20122;-68
2021/05/05 03:25:58;;;;;;;1.55;0.70;;;13.70;99.90;;;;;;4970701;28;20015;-68
2021/05/05 03:28:24;;;;;;;2.78;0.90;;;13.60;99.90;;;;;;4970987;28;20511;-69
2021/05/05 03:30:50;;;;;;;3.15;0.80;;;13.60;99.90;;;;;;4966348;28;20387;-70
2021/05/05 03:33:15;;;;;;;1.13;0.52;;;13.70;99.90;;;;;;4973698;28;20451;-70
2021/05/05 03:35:41;;;;;;;2.58;0.75;;;13.70;99.90;;;;;;4976207;28;20451;-67
2021/05/05 03:38:07;;;;;;;2.40;0.60;;;13.60;99.90;;;;;;4979247;28;20031;-70
2021/05/05 03:40:34;;;;;;;2.38;0.70;;;13.80;99.90;;;;;;4975786;28;20094;-68
2021/05/05 03:43:00;;;;;;;4.47;0.77;;;13.70;99.90;;;;;;4979492;28;20022;-68
2021/05/05 03:45:26;;;;;;;3.20;1.17;;;13.50;99.90;;;;;;4983058;28;20130;-68
2021/05/05 03:47:51;;;;;;;2.78;0.90;;;13.60;99.90;;;;;;4978103;28;20034;-69
2021/05/05 03:50:19;;;;;;;1.33;0.93;;;13.50;99.90;;;;;;4983734;28;20106;-70
2021/05/05 03:52:45;;;;;;;3.10;0.80;;;13.30;99.90;;;;;;4975588;28;20133;-69
2021/05/05 03:55:11;;;;;;;2.55;0.98;;;13.30;99.90;;;;;;4988537;28;20682;-69
2021/05/05 03:57:37;;;;;;;2.08;0.77;;;13.40;99.90;;;;;;4961594;28;20027;-69
2021/05/05 04:00:06;;;;;;;1.58;1.00;;;13.30;99.90;;;;;;4960412;28;20489;-69
2021/05/05 04:02:32;;;;;;;3.15;0.90;;;13.10;99.90;;;;;;4958539;28;20019;-70
2021/05/05 04:04:58;;;;;;;2.08;1.00;;;13.10;99.90;;;;;;4976398;28;20115;-70
2021/05/05 04:07:24;;;;;;;1.55;0.88;;;12.90;99.90;;;;;;4969162;28;20376;-69
2021/05/05 04:09:49;;;;;;;6.35;1.42;;;12.90;99.90;;;;;;4974470;28;20510;-71
2021/05/05 04:12:16;;;;;;;2.90;1.25;;;12.90;99.90;;;;;;4971489;28;20173;-71
2021/05/05 04:14:42;;;;;;;2.33;1.20;;;12.80;99.90;;;;;;4974914;28;20039;-70
2021/05/05 04:17:08;;;;;;;2.03;1.13;;;12.30;99.90;;;;;;4969279;28;20039;-68
2021/05/05 04:19:36;;;;;;;3.00;0.98;;;12.40;99.90;;;;;;4982129;28;20161;-68
2021/05/05 04:22:02;;;;;;;2.67;1.27;;;12.30;99.90;;;;;;4961615;28;20019;-69
2021/05/05 04:24:28;;;;;;;1.95;1.15;;;12.40;99.90;;;;;;4982098;28;20518;-69
2021/05/05 04:26:54;;;;;;;1.05;0.82;;;12.50;99.90;;;;;;4992989;28;20137;-68
2021/05/05 04:29:20;;;;;;;2.70;1.08;;;12.50;99.90;;;;;;4981418;28;20034;-69
2021/05/05 04:31:47;;;;;;;1.85;1.10;;;12.60;99.90;;;;;;4992676;28;20027;-69
2021/05/05 04:34:14;;;;;;;2.83;1.08;;;12.60;99.90;;;;;;4983664;28;20108;-69
2021/05/05 04:36:40;;;;;;;1.48;1.10;;;12.50;99.90;;;;;;4972758;28;20023;-69
2021/05/05 04:39:06;;;;;;;2.20;1.20;;;12.50;99.90;;;;;;4984330;28;20117;-68
2021/05/05 04:41:32;;;;;;;1.23;1.00;;;12.40;99.90;;;;;;4973508;28;20053;-68
2021/05/05 04:43:57;;;;;;;4.45;1.38;;;12.40;99.90;;;;;;4983587;28;20113;-68
2021/05/05 04:46:23;;;;;;;1.65;1.50;;;12.40;99.90;;;;;;4974077;28;20571;-69
2021/05/05 04:48:49;;;;;;;1.92;1.13;;;12.40;99.90;;;;;;4981999;28;20415;-69
2021/05/05 04:51:14;;;;;;;4.65;1.50;;;12.40;99.90;;;;;;4970498;28;20020;-69
2021/05/05 04:53:40;;;;;;;2.42;1.42;;;12.50;99.90;;;;;;4974695;28;20126;-69
2021/05/05 04:56:07;;;;;;;1.77;1.10;;;12.50;99.90;;;;;;4989592;28;20483;-69
2021/05/05 04:58:32;;;;;;;2.63;1.10;;;12.40;99.90;;;;;;4986393;28;20533;-69
2021/05/05 05:00:58;;;;;;;1.25;1.10;;;12.40;99.90;;;;;;4976831;28;20015;-69
2021/05/05 05:03:24;;;;;;;2.53;0.90;;;12.30;99.90;;;;;;4978547;28;20034;-69
2021/05/05 05:05:50;;;;;;;1.75;0.98;;;12.30;99.90;;;;;;4977279;28;20023;-69
2021/05/05 05:08:15;;;;;;;2.97;0.85;;;12.20;99.90;;;;;;4977418;28;20054;-69
2021/05/05 05:10:41;;;;;;;2.58;0.85;;;12.40;99.90;;;;;;4978929;28;20054;-68
2021/05/05 05:13:06;;;;;;;1.73;1.02;;;12.50;99.90;;;;;;4970973;28;20039;-68
2021/05/05 05:15:32;;;;;;;2.38;1.42;;;12.60;99.90;;;;;;4963327;28;20031;-69
2021/05/05 05:17:58;;;;;;;3.15;1.20;;;12.50;99.90;;;;;;4964136;28;20446;-69
2021/05/05 05:20:24;;;;;;;2.20;1.30;;;12.50;99.90;;;;;;4970243;28;20495;-69
2021/05/05 05:22:54;;;;;;;1.48;1.02;;;12.40;99.90;;;;;;4969850;28;20069;-68
2021/05/05 05:25:20;;;;;;;3.20;1.55;;;12.50;99.90;;;;;;4979101;28;20034;-68
2021/05/05 05:27:46;;;;;;;1.30;1.02;;;12.50;99.90;;;;;;4970099;28;20425;-68
2021/05/05 05:30:12;;;;;;;1.98;0.93;;;12.50;99.90;;;;;;4967014;28;20721;-68
2021/05/05 05:32:38;;;;;;;2.08;1.05;;;12.50;99.90;;;;;;4967093;28;20037;-69
2021/05/05 05:35:04;;;;;;;1.98;1.00;;;12.30;99.90;;;;;;4970632;28;20046;-69
2021/05/05 05:37:30;;;;;;;3.80;1.10;;;12.50;99.90;;;;;;4968278;28;20030;-68
2021/05/05 05:39:56;;;;;;;2.95;0.93;;;12.40;99.90;;;;;;4970266;28;20034;-69
2021/05/05 05:42:22;;;;;;;3.67;1.33;;;12.60;99.90;;;;;;4969811;28;20054;-69
2021/05/05 05:44:47;;;;;;;1.35;0.95;;;12.60;99.90;;;;;;4969422;28;20023;-68
2021/05/05 05:47:13;;;;;;;3.47;1.05;;;12.50;99.90;;;;;;4962527;28;20111;-69
2021/05/05 05:49:39;;;;;;;1.45;1.00;;;12.60;99.90;;;;;;4971626;28;20023;-67
2021/05/05 05:52:05;;;;;;;2.10;1.02;;;12.70;99.90;;;;;;4967843;28;20054;-68
2021/05/05 05:54:30;;;;;;;2.47;1.00;;;12.70;99.90;;;;;;4974990;28;20061;-68
2021/05/05 05:56:56;;;;;;;0.90;0.70;;;12.70;99.90;;;;;;4971029;28;20058;-68
2021/05/05 05:59:22;;;;;;;1.08;0.98;;;12.60;99.90;;;;;;4976723;28;20495;-68
2021/05/05 06:01:47;;;;;;;1.50;0.70;;;12.70;99.90;;;;;;4971377;28;20023;-68
2021/05/05 06:04:15;;;;;;;2.30;0.77;;;12.60;99.90;;;;;;4976734;28;20042;-67
2021/05/05 06:06:41;;;;;;;0.90;0.60;;;12.60;99.90;;;;;;4975527;28;20030;-67
2021/05/05 06:09:07;;;;;;;1.67;0.75;;;12.70;99.90;;;;;;4975744;28;20081;-67
2021/05/05 06:11:32;;;;;;;1.63;0.63;;;12.70;99.90;;;;;;4978486;28;20501;-68
2021/05/05 06:13:58;;;;;;;1.95;0.63;;;12.70;99.90;;;;;;4976132;28;20130;-70
2021/05/05 06:16:24;;;;;;;1.52;0.47;;;12.70;99.90;;;;;;4979837;28;20094;-69
2021/05/05 06:18:49;;;;;;;0.50;0.50;;;12.80;99.90;;;;;;4975876;28;20119;-69
2021/05/05 06:21:15;;;;;;;0.82;0.60;;;12.90;99.90;;;;;;4981316;28;20034;-69
2021/05/05 06:23:41;;;;;;;1.35;0.43;;;13.10;99.90;;;;;;4970329;28;20082;-70
2021/05/05 06:26:06;;;;;;;0.80;0.47;;;13.00;99.90;;;;;;4970037;28;20018;-70
2021/05/05 06:28:32;;;;;;;0.82;0.40;;;13.10;99.90;;;;;;4970320;28;20488;-70
2021/05/05 06:30:58;;;;;;;2.35;0.50;;;13.00;99.90;;;;;;4968810;28;20023;-70
2021/05/05 06:33:25;;;;;;;0.57;0.50;;;12.90;99.90;;;;;;4969149;28;20489;-69
2021/05/05 06:35:51;;;;;;;1.88;0.50;;;12.90;99.90;;;;;;4966468;28;20026;-69
2021/05/05 06:38:17;;;;;;;0.55;0.40;;;12.80;99.90;;;;;;4973918;28;20419;-69
2021/05/05 06:40:43;;;;;;;0.68;0.30;;;12.60;99.90;;;;;;4970907;28;20058;-69
2021/05/05 06:43:08;;;;;;;1.17;0.40;;;12.80;99.90;;;;;;4964703;28;20027;-69
2021/05/05 06:45:34;;;;;;;1.00;0.50;;;12.90;99.90;;;;;;4966322;28;20492;-69
2021/05/05 06:48:00;;;;;;;0.52;0.20;;;12.70;99.90;;;;;;4967725;28;20419;-69
2021/05/05 06:50:27;;;;;;;0.50;0.40;;;12.70;99.90;;;;;;4969073;28;20035;-69
2021/05/05 06:52:55;;;;;;;1.85;0.30;;;12.80;99.90;;;;;;4968395;28;20022;-69
2021/05/05 06:55:21;;;;;;;2.05;0.30;;;12.70;99.90;;;;;;4974263;28;20109;-70
2021/05/05 06:57:47;;;;;;;0.85;0.40;;;12.60;99.90;;;;;;4973259;28;20491;-69
2021/05/05 07:00:13;;;;;;;3.55;0.50;;;12.50;99.90;;;;;;4968545;28;20078;-69
2021/05/05 07:02:39;;;;;;;2.92;0.60;;;12.70;99.90;;;;;;4980277;28;20587;-70
2021/05/05 07:05:05;;;;;;;2.28;0.45;;;12.70;99.90;;;;;;4975986;28;20022;-69
2021/05/05 07:07:31;;;;;;;1.38;0.52;;;12.80;99.90;;;;;;4971748;28;20034;-69
2021/05/05 07:09:57;;;;;;;1.80;0.40;;;12.80;99.90;;;;;;4973650;28;20879;-73
2021/05/05 07:12:23;;;;;;;1.70;0.50;;;12.90;99.90;;;;;;4954814;28;20117;-73
2021/05/05 07:14:49;;;;;;;1.05;0.30;;;13.00;99.90;;;;;;4970787;28;20075;-72
2021/05/05 07:17:14;;;;;;;1.15;0.40;;;13.20;99.90;;;;;;4960785;28;20019;-73
2021/05/05 07:19:40;;;;;;;2.63;0.40;;;13.30;99.90;;;;;;4980355;28;20692;-73
2021/05/05 07:22:06;;;;;;;1.13;0.30;;;13.20;99.90;;;;;;4969511;28;20026;-73
2021/05/05 07:24:32;;;;;;;0.47;0.30;;;13.20;99.90;;;;;;4971746;28;20609;-73
2021/05/05 07:26:58;;;;;;;1.80;0.50;;;13.40;99.90;;;;;;4959066;28;20058;-70
2021/05/05 07:29:24;;;;;;;1.70;0.40;;;13.60;99.90;;;;;;4973020;28;20034;-73
2021/05/05 07:31:50;;;;;;;1.83;0.35;;;13.70;99.90;;;;;;4970608;28;20029;-73
2021/05/05 07:34:16;;;;;;;2.45;0.47;;;13.60;99.90;;;;;;4975247;28;20047;-73
2021/05/05 07:36:46;;;;;;;1.17;0.28;;;13.40;99.90;;;;;;4969589;28;20082;-73
2021/05/05 07:49:21;;;;;;;4.50;0.52;;;13.50;99.90;;;;;;4978052;28;20483;-73
2021/05/05 07:51:47;;;;;;;1.58;0.40;;;13.80;99.90;;;;;;4970584;28;20018;-72
2021/05/05 07:54:14;;;;;;;2.28;0.55;;;14.00;99.90;;;;;;4978768;28;20482;-72
2021/05/05 07:56:41;;;;;;;1.52;0.50;;;14.10;99.90;;;;;;4980136;28;20479;-71
2021/05/05 07:59:07;;;;;;;2.80;0.55;;;13.80;99.90;;;;;;4978904;28;20031;-71
2021/05/05 08:01:34;;;;;;;1.17;0.40;;;14.00;99.90;;;;;;4973282;28;20427;-72
2021/05/05 08:04:00;;;;;;;1.95;0.55;;;14.00;99.90;;;;;;4975264;28;20026;-71
2021/05/05 08:06:27;;;;;;;1.38;0.40;;;14.10;99.90;;;;;;4982002;28;20109;-71
2021/05/05 08:08:53;;;;;;;1.33;0.38;;;14.40;99.90;;;;;;4970741;28;20034;-72
2021/05/05 08:11:20;;;;;;;4.13;0.68;;;14.40;99.90;;;;;;4975931;28;20646;-72
2021/05/05 08:13:47;;;;;;;2.33;0.50;;;14.40;99.90;;;;;;4975104;28;20059;-71
2021/05/05 08:16:18;;;;;;;0.30;0.28;;;14.50;99.90;;;;;;4976716;28;20042;-72
2021/05/05 08:18:44;;;;;;;0.85;0.40;;;14.30;99.90;;;;;;4977234;28;20106;-72
2021/05/05 08:21:10;;;;;;;2.17;0.50;;;14.40;99.90;;;;;;4972876;28;20034;-71
2021/05/05 08:23:37;;;;;;;0.68;0.30;;;14.30;99.90;;;;;;4978358;28;20023;-72
2021/05/05 08:26:05;;;;;;;3.47;0.50;;;14.20;99.90;;;;;;4972984;28;20093;-72
2021/05/05 08:28:31;;;;;;;3.67;0.50;;;14.20;99.90;;;;;;4979247;28;20399;-73
2021/05/05 08:30:58;;;;;;;1.50;0.60;;;14.20;99.90;;;;;;4971271;28;20405;-77
2021/05/05 08:33:24;;;;;;;1.23;0.38;;;14.30;99.90;;;;;;4973239;28;20039;-76
2021/05/05 08:35:50;;;;;;;1.95;0.30;;;14.20;99.90;;;;;;4977600;28;20503;-66
2021/05/05 08:38:15;;;;;;;4.40;0.50;;;14.50;99.90;;;;;;4977573;28;20069;-69
2021/05/05 08:40:42;;;;;;;0.73;0.35;;;14.40;99.90;;;;;;4976811;28;20162;-68
2021/05/05 08:43:08;;;;;;;2.10;0.50;;;14.60;99.90;;;;;;4978360;28;20038;-69
2021/05/05 08:45:34;;;;;;;0.95;0.25;;;14.70;99.90;;;;;;4980660;28;20102;-68
2021/05/05 08:48:03;;;;;;;0.93;0.30;;;14.60;99.90;;;;;;4978001;28;20045;-68
2021/05/05 08:50:30;;;;;;;1.27;0.30;;;14.70;99.90;;;;;;4972424;28;20030;-69
2021/05/05 08:52:57;;;;;;;1.20;0.20;;;14.60;99.90;;;;;;4977217;28;20041;-68
2021/05/05 08:55:24;;;;;;;0.52;0.20;;;14.80;99.90;;;;;;4970668;28;20043;-68
2021/05/05 08:57:50;;;;;;;1.75;0.30;;;15.00;99.90;;;;;;4957633;28;20476;-68
2021/05/05 09:00:20;;;;;;;1.38;0.30;;;15.00;99.90;;;;;;4965705;28;20027;-68
2021/05/05 09:02:46;;;;;;;1.58;0.30;;;15.10;99.90;;;;;;4960900;28;20033;-68
2021/05/05 09:05:13;;;;;;;1.83;0.25;;;14.90;99.90;;;;;;4985550;28;20030;-68
2021/05/05 09:07:43;;;;;;;2.17;0.50;;;15.00;99.90;;;;;;4974099;28;20085;-68
2021/05/05 09:10:13;;;;;;;2.10;0.20;;;15.20;99.90;;;;;;4982167;28;20054;-68
2021/05/05 09:12:41;;;;;;;0.57;0.30;;;15.20;99.90;;;;;;4961561;28;20032;-68
2021/05/05 09:15:07;;;;;;;0.77;0.22;;;15.10;99.90;;;;;;4955339;28;20567;-68
2021/05/05 09:17:37;;;;;;;1.38;0.30;;;15.30;99.90;;;;;;4957561;28;20495;-68
2021/05/05 09:20:06;;;;;;;2.40;0.30;;;15.10;99.90;;;;;;4964564;28;20027;-68
2021/05/05 09:22:50;;;;;;;0.68;0.22;;;15.10;99.90;;;;;;4959003;28;20026;-67
2021/05/05 09:25:23;;;;;;;3.03;0.40;;;15.40;99.90;;;;;;4954847;28;20023;-67
2021/05/05 09:28:20;;;;;;;0.90;0.50;;;15.60;99.90;;;;;;4959219;28;20104;-67
2021/05/05 09:30:48;;;;;;;1.25;0.40;;;15.90;99.90;;;;;;4961245;28;20047;-67
2021/05/05 09:33:26;;;;;;;0.85;0.20;;;16.10;99.90;;;;;;4961843;28;20092;-67
2021/05/05 09:35:55;;;;;;;1.92;0.30;;;16.60;99.90;;;;;;4966375;28;20031;-67
2021/05/05 09:38:20;;;;;;;1.33;0.20;;;16.30;99.90;;;;;;4973276;28;20031;-67
2021/05/05 09:41:04;;;;;;;0.60;0.20;;;15.90;99.90;;;;;;4982744;28;20017;-67
2021/05/05 09:43:35;;;;;;;0.57;0.30;;;16.00;99.90;;;;;;4978009;28;20045;-68
2021/05/05 09:46:01;;;;;;;0.65;0.30;;;16.20;99.90;;;;;;4963846;28;20031;-68
2021/05/05 09:48:27;;;;;;;1.33;0.40;;;16.00;99.90;;;;;;4977424;28;20026;-67
2021/05/05 09:51:02;;;;;;;1.02;0.30;;;16.20;99.90;;;;;;4977117;28;20094;-67
2021/05/05 09:53:32;;;;;;;2.30;0.40;;;16.30;99.90;;;;;;4979845;28;20029;-67
2021/05/05 09:55:57;;;;;;;1.52;0.40;;;16.70;99.90;;;;;;4976412;28;20035;-67
2021/05/05 09:58:32;;;;;;;2.38;0.30;;;16.90;99.90;;;;;;4976826;28;20029;-67
2021/05/05 10:01:07;;;;;;;1.15;0.38;;;16.80;99.90;;;;;;4977406;28;20137;-67
2021/05/05 10:03:52;;;;;;;1.50;0.43;;;16.80;99.90;;;;;;4975570;28;20037;-67
2021/05/05 10:06:18;;;;;;;4.57;0.70;;;16.40;99.90;;;;;;4968649;28;20018;-67
2021/05/05 10:08:44;;;;;;;2.20;0.47;;;16.10;99.90;;;;;;4977591;28;20026;-68
2021/05/05 10:11:10;;;;;;;0.52;0.40;;;16.50;99.90;;;;;;4986292;28;20054;-67
2021/05/05 10:13:37;;;;;;;1.15;0.45;;;16.80;99.90;;;;;;4976540;28;20035;-67
2021/05/05 10:16:02;;;;;;;0.73;0.25;;;16.90;99.90;;;;;;4978403;28;20027;-67
2021/05/05 10:18:28;;;;;;;2.95;0.40;;;17.20;99.90;;;;;;4976360;28;20031;-67
2021/05/05 10:20:56;;;;;;;2.17;0.30;;;17.40;99.90;;;;;;4978322;28;20033;-67
2021/05/05 10:23:22;;;;;;;1.05;0.35;;;17.40;99.90;;;;;;4967811;28;20038;-67
2021/05/05 10:25:49;;;;;;;1.98;0.20;;;17.40;99.90;;;;;;4955876;28;20027;-67
2021/05/05 10:28:16;;;;;;;1.40;0.30;;;17.40;99.90;;;;;;4957102;28;20034;-67
2021/05/05 10:30:42;;;;;;;1.13;0.30;;;17.70;99.90;;;;;;4954636;28;20844;-68
2021/05/05 10:33:17;;;;;;;2.05;0.40;;;17.40;99.90;;;;;;4969981;28;20646;-67
2021/05/05 10:35:43;;;;;;;1.20;0.57;;;17.40;99.90;;;;;;4963954;28;20041;-67
2021/05/05 10:38:35;;;;;;;3.13;0.40;;;17.30;99.90;;;;;;4973432;28;20580;-67
2021/05/05 10:41:21;;;;;;;1.67;0.35;;;17.10;99.90;;;;;;4983698;28;20026;-67
2021/05/05 10:43:56;;;;;;;0.67;0.30;;;17.70;99.90;;;;;;4969800;28;20644;-67
2021/05/05 10:46:30;;;;;;;1.02;0.28;;;18.20;99.90;;;;;;4986077;28;20037;-67
2021/05/05 10:49:08;;;;;;;4.43;0.50;;;18.20;99.90;;;;;;4984029;28;20081;-67
2021/05/05 10:51:47;;;;;;;1.85;0.30;;;18.60;99.90;;;;;;4951119;28;20027;-67
2021/05/05 10:54:15;;;;;;;0.88;0.30;;;18.50;99.90;;;;;;4979777;28;20034;-67
2021/05/05 10:56:44;;;;;;;2.13;0.40;;;18.10;99.90;;;;;;4969441;28;20023;-67
2021/05/05 10:59:11;;;;;;;0.95;0.35;;;18.10;99.90;;;;;;4967266;28;20174;-67
2021/05/05 11:01:40;;;;;;;1.05;0.35;;;17.80;99.90;;;;;;4962699;28;20015;-67
2021/05/05 11:04:14;;;;;;;4.45;0.45;;;17.60;99.90;;;;;;4972411;28;20571;-67
2021/05/05 11:06:46;;;;;;;2.25;0.70;;;17.90;99.90;;;;;;4950418;28;20023;-67
2021/05/05 11:09:16;;;;;;;2.72;0.60;;;18.30;99.90;;;;;;4979357;28;20030;-68
2021/05/05 11:11:47;;;;;;;3.25;0.50;;;18.70;99.90;;;;;;4969449;28;20045;-67
2021/05/05 11:14:24;;;;;;;1.40;0.40;;;19.10;99.90;;;;;;4962798;28;20496;-67
2021/05/05 11:22:07;;;;;;;2.15;0.40;;;18.80;99.90;;;;;;4961002;28;20086;-67
2021/05/05 11:24:40;;;;;;;1.25;0.50;;;18.60;99.90;;;;;;4964771;28;20018;-68
2021/05/05 11:27:08;;;;;;;1.85;0.40;;;18.90;99.90;;;;;;4963031;28;20589;-67
2021/05/05 11:29:37;;;;;;;1.63;0.43;;;18.30;99.90;;;;;;4961711;28;20496;-67
2021/05/05 11:32:06;;;;;;;1.35;0.47;;;18.40;99.90;;;;;;4951177;28;20082;-67
2021/05/05 11:34:37;;;;;;;2.40;0.80;;;18.80;99.90;;;;;;4961884;28;20039;-67
2021/05/05 11:37:06;;;;;;;1.73;0.47;;;18.90;99.90;;;;;;4950423;28;20047;-68
2021/05/05 11:39:43;;;;;;;1.83;0.57;;;18.70;99.90;;;;;;4962225;28;20070;-67
2021/05/05 11:42:11;;;;;;;2.63;0.73;;;18.40;99.90;;;;;;4951788;28;20027;-67
2021/05/05 11:44:45;;;;;;;1.50;0.50;;;19.00;99.90;;;;;;4961774;28;20034;-67
2021/05/05 11:47:13;;;;;;;1.63;0.40;;;19.50;99.90;;;;;;4957967;28;20062;-67
2021/05/05 11:49:42;;;;;;;1.77;0.50;;;19.20;99.90;;;;;;4960418;28;20027;-67
2021/05/05 11:52:22;;;;;;;3.03;0.50;;;19.40;99.90;;;;;;4967595;28;20035;-67
2021/05/05 11:55:09;;;;;;;1.40;0.70;;;20.50;99.90;;;;;;4958003;28;20102;-68
2021/05/05 11:57:56;;;;;;;2.55;0.50;;;20.90;99.90;;;;;;4956457;28;20031;-68
2021/05/05 12:00:29;;;;;;;1.33;0.43;;;20.10;99.90;;;;;;4962957;28;20054;-68
2021/05/05 12:02:57;;;;;;;1.92;0.50;;;20.00;99.90;;;;;;4957330;28;20027;-67
2021/05/05 12:05:23;;;;;;;1.77;0.43;;;19.90;99.90;;;;;;4965585;28;20085;-67
2021/05/05 12:08:12;;;;;;;1.73;0.60;;;19.70;99.90;;;;;;4956995;28;20023;-67
2021/05/05 12:10:46;;;;;;;4.00;0.50;;;19.80;99.90;;;;;;4965572;28;20531;-67
2021/05/05 12:13:16;;;;;;;1.23;0.60;;;19.80;99.90;;;;;;4971409;28;20014;-67
2021/05/05 12:16:02;;;;;;;1.90;0.70;;;19.90;99.90;;;;;;4970255;28;20109;-66
2021/05/05 12:18:35;;;;;;;2.75;0.85;;;19.80;99.90;;;;;;4967522;28;20037;-66
2021/05/05 12:21:10;;;;;;;1.90;0.63;;;19.40;99.90;;;;;;4960201;28;20039;-66
2021/05/05 12:23:48;;;;;;;3.53;0.60;;;19.90;99.90;;;;;;4966505;28;20018;-68
2021/05/05 12:26:27;;;;;;;2.20;0.80;;;20.50;99.90;;;;;;4971283;28;20030;-68
2021/05/05 12:28:54;;;;;;;1.85;0.47;;;21.10;99.90;;;;;;4960098;28;20118;-68
2021/05/05 12:31:23;;;;;;;2.58;0.50;;;21.10;99.90;;;;;;4985801;28;20034;-68
2021/05/05 12:33:50;;;;;;;1.35;0.60;;;21.40;99.90;;;;;;4967282;28;20035;-68
2021/05/05 12:36:24;;;;;;;2.70;0.55;;;20.30;99.90;;;;;;4968468;28;20026;-68
2021/05/05 12:38:52;;;;;;;5.00;0.90;;;20.50;99.90;;;;;;4967097;28;20084;-68
2021/05/05 12:41:20;;;;;;;3.92;1.00;;;20.30;99.90;;;;;;4973472;28;20073;-68
2021/05/05 12:43:54;;;;;;;1.92;0.55;;;21.20;99.90;;;;;;4966920;28;20023;-68
2021/05/05 12:46:23;;;;;;;2.25;0.65;;;21.70;99.90;;;;;;4972943;28;20522;-68
2021/05/05 12:48:49;;;;;;;2.95;0.63;;;20.80;99.90;;;;;;4964988;28;20043;-68
2021/05/05 12:51:17;;;;;;;2.10;0.63;;;20.30;99.90;;;;;;4972963;28;20023;-68
2021/05/05 12:53:54;;;;;;;2.47;0.70;;;20.40;99.90;;;;;;4965992;28;20070;-68
2021/05/05 12:56:40;;;;;;;4.40;0.95;;;20.30;99.90;;;;;;4970608;28;20031;-69
2021/05/05 12:59:06;;;;;;;4.55;0.52;;;21.40;99.90;;;;;;4966647;28;20027;-69
2021/05/05 13:01:33;;;;;;;1.80;0.57;;;20.80;99.90;;;;;;4973018;28;20038;-68
2021/05/05 13:03:59;;;;;;;3.47;0.60;;;20.40;99.90;;;;;;4964998;28;20098;-68
2021/05/05 13:06:43;;;;;;;1.95;0.50;;;20.50;99.90;;;;;;4972104;28;20102;-68